Time;durP1;ratioP1;P1;durP2;ratioP2;P2;SDS_P1;SDS_P2;PMS_P1;PMS_P2;Temp;Humidity;BMP_temperature;BMP_pressure;BME280_temperature;BME280_humidity;BME280_pressure;Samples;Min_cycle;Max_cycle;Signal;HPM_P1;HPM_P2
2023/05/20 00:02:12;;;;;;;1.83;1.70;;;12.30;99.90;;;;;;6126025;23;20374;-84
2023/05/20 00:04:40;;;;;;;2.20;1.50;;;12.30;99.90;;;;;;6126808;23;20381;-85
2023/05/20 00:07:08;;;;;;;1.75;1.60;;;12.30;99.90;;;;;;6126626;23;20448;-85
2023/05/20 00:09:37;;;;;;;2.20;1.80;;;12.30;99.90;;;;;;6151501;23;20398;-84
2023/05/20 00:12:04;;;;;;;1.75;1.50;;;12.30;99.90;;;;;;6150275;23;20370;-84
2023/05/20 00:14:31;;;;;;;1.40;1.30;;;12.30;99.90;;;;;;6151521;23;20440;-84
2023/05/20 00:16:58;;;;;;;1.75;1.30;;;12.30;99.90;;;;;;6151474;23;20402;-85
2023/05/20 00:19:25;;;;;;;1.42;1.33;;;12.30;99.90;;;;;;6127407;23;20374;-84
2023/05/20 00:21:52;;;;;;;1.65;1.25;;;12.30;99.90;;;;;;6125954;23;20387;-84
2023/05/20 00:24:19;;;;;;;1.60;1.17;;;12.30;99.90;;;;;;6127874;23;20367;-84
2023/05/20 00:26:46;;;;;;;2.63;1.00;;;12.30;99.90;;;;;;6126789;23;20704;-84
2023/05/20 00:29:12;;;;;;;1.60;1.50;;;12.30;99.90;;;;;;6126268;23;20420;-84
2023/05/20 00:31:39;;;;;;;1.60;1.40;;;12.30;99.90;;;;;;6126612;23;20389;-84
2023/05/20 00:34:07;;;;;;;1.73;1.20;;;12.30;99.90;;;;;;6126025;23;20395;-83
2023/05/20 00:36:34;;;;;;;1.70;0.77;;;12.30;99.90;;;;;;6152738;23;20716;-84
2023/05/20 00:39:01;;;;;;;1.00;0.50;;;12.30;99.90;;;;;;6125593;23;20377;-83
2023/05/20 00:41:28;;;;;;;0.75;0.40;;;12.30;99.90;;;;;;6126579;23;20396;-83
2023/05/20 00:43:55;;;;;;;1.20;0.40;;;12.30;99.90;;;;;;6126246;23;20381;-83
2023/05/20 00:46:25;;;;;;;0.50;0.40;;;12.30;99.90;;;;;;6126496;23;20452;-83
2023/05/20 00:48:52;;;;;;;0.50;0.40;;;12.30;99.90;;;;;;6151187;23;20374;-84
2023/05/20 00:51:19;;;;;;;0.50;0.37;;;12.40;99.90;;;;;;6126711;23;20362;-83
2023/05/20 00:53:46;;;;;;;1.35;0.98;;;12.40;99.90;;;;;;6126862;23;20370;-83
2023/05/20 00:56:13;;;;;;;2.20;0.90;;;12.40;99.90;;;;;;6125612;23;20382;-84
2023/05/20 00:58:40;;;;;;;1.20;0.80;;;12.40;99.90;;;;;;6125864;23;20378;-84
2023/05/20 01:01:07;;;;;;;1.83;1.05;;;12.40;99.90;;;;;;6123530;23;20583;-83
2023/05/20 01:03:34;;;;;;;0.90;0.80;;;12.40;99.90;;;;;;6124709;23;20708;-84
2023/05/20 01:06:02;;;;;;;1.37;0.70;;;12.40;99.90;;;;;;6126003;23;20494;-84
2023/05/20 01:08:29;;;;;;;1.40;0.60;;;12.40;99.90;;;;;;6121743;23;20422;-83
2023/05/20 01:11:07;;;;;;;0.73;0.53;;;12.30;99.90;;;;;;6122041;23;20380;-85
2023/05/20 01:13:43;;;;;;;1.03;0.70;;;12.30;99.90;;;;;;6121515;23;20387;-84
2023/05/20 01:16:11;;;;;;;1.05;0.60;;;12.30;99.90;;;;;;6120648;23;20386;-83
2023/05/20 01:18:40;;;;;;;1.20;0.70;;;12.30;99.90;;;;;;6122442;23;20390;-84
2023/05/20 01:21:10;;;;;;;1.90;0.70;;;12.30;99.90;;;;;;6121772;23;20434;-84
2023/05/20 01:23:39;;;;;;;1.52;0.70;;;12.30;99.90;;;;;;6126309;23;20733;-84
2023/05/20 01:26:06;;;;;;;1.23;0.70;;;12.30;99.90;;;;;;6151371;23;20381;-83
2023/05/20 01:28:37;;;;;;;1.80;0.77;;;12.30;99.90;;;;;;6150619;23;20386;-84
2023/05/20 01:31:09;;;;;;;1.10;0.65;;;12.20;99.90;;;;;;6149858;23;20374;-84
2023/05/20 01:33:38;;;;;;;1.10;0.68;;;12.20;99.90;;;;;;6150429;23;20369;-84
2023/05/20 01:36:06;;;;;;;1.30;0.70;;;12.30;99.90;;;;;;6149328;23;20424;-84
2023/05/20 01:38:35;;;;;;;1.10;0.80;;;12.30;99.90;;;;;;6148656;23;20753;-85
2023/05/20 01:41:03;;;;;;;1.15;0.70;;;12.30;99.90;;;;;;6151186;23;20417;-84
2023/05/20 01:43:30;;;;;;;1.10;0.68;;;12.30;99.90;;;;;;6151419;23;20374;-85
2023/05/20 01:45:57;;;;;;;1.60;0.70;;;12.30;99.90;;;;;;6150845;23;20755;-85
2023/05/20 01:48:24;;;;;;;2.28;1.10;;;12.30;99.90;;;;;;6151440;23;20384;-85
2023/05/20 01:50:51;;;;;;;1.35;0.82;;;12.30;99.90;;;;;;6126099;23;20432;-85
2023/05/20 01:53:18;;;;;;;1.08;0.50;;;12.30;99.90;;;;;;6127895;23;20381;-85
2023/05/20 01:55:45;;;;;;;1.10;0.60;;;12.20;99.90;;;;;;6128663;23;20728;-85
2023/05/20 01:58:12;;;;;;;0.63;0.50;;;12.20;99.90;;;;;;6128713;23;20382;-85
2023/05/20 02:00:39;;;;;;;0.98;0.40;;;12.20;99.90;;;;;;6127906;23;20489;-84
2023/05/20 02:03:06;;;;;;;0.57;0.20;;;12.20;99.90;;;;;;6127981;23;20453;-84
2023/05/20 02:05:33;;;;;;;0.35;0.20;;;12.20;99.90;;;;;;6127652;23;20408;-85
2023/05/20 02:08:00;;;;;;;0.60;0.30;;;12.20;99.90;;;;;;6128855;23;20384;-85
2023/05/20 02:10:27;;;;;;;1.60;0.30;;;12.20;99.90;;;;;;6127499;23;20374;-84
2023/05/20 02:12:54;;;;;;;0.50;0.20;;;12.20;99.90;;;;;;6128755;23;20378;-84
2023/05/20 02:15:21;;;;;;;0.73;0.15;;;12.10;99.90;;;;;;6127942;23;20783;-84
2023/05/20 02:17:48;;;;;;;0.60;0.10;;;12.10;99.90;;;;;;6128444;23;20357;-85
2023/05/20 02:20:15;;;;;;;0.93;0.30;;;12.10;99.90;;;;;;6128590;23;20409;-84
2023/05/20 02:22:42;;;;;;;1.20;0.10;;;12.10;99.90;;;;;;6127979;23;20378;-85
2023/05/20 02:25:09;;;;;;;0.20;0.10;;;12.20;99.90;;;;;;6128356;23;20370;-85
2023/05/20 02:27:36;;;;;;;2.40;0.50;;;12.20;99.90;;;;;;6127619;23;20382;-83
2023/05/20 02:30:03;;;;;;;0.65;0.28;;;12.20;99.90;;;;;;6128738;23;20392;-83
2023/05/20 02:32:30;;;;;;;1.58;0.30;;;12.20;99.90;;;;;;6152169;23;20374;-84
2023/05/20 02:34:57;;;;;;;0.38;0.20;;;12.10;99.90;;;;;;6128529;23;20851;-83
2023/05/20 02:37:24;;;;;;;0.60;0.32;;;12.20;99.90;;;;;;6127797;23;20424;-82
2023/05/20 02:39:50;;;;;;;1.13;0.43;;;12.10;99.90;;;;;;6128453;23;20397;-82
2023/05/20 02:42:18;;;;;;;0.55;0.35;;;12.20;99.90;;;;;;6128046;23;20440;-81
2023/05/20 02:44:45;;;;;;;0.90;0.38;;;12.20;99.90;;;;;;6127492;23;20389;-81
2023/05/20 02:47:13;;;;;;;0.38;0.25;;;12.10;99.90;;;;;;6128336;23;20366;-81
2023/05/20 02:49:40;;;;;;;0.85;0.30;;;12.10;99.90;;;;;;6127074;23;20729;-82
2023/05/20 02:52:07;;;;;;;0.52;0.30;;;12.10;99.90;;;;;;6127973;23;20374;-81
2023/05/20 02:54:34;;;;;;;0.68;0.30;;;12.10;99.90;;;;;;6152549;23;20382;-82
2023/05/20 02:57:02;;;;;;;1.10;0.40;;;12.10;99.90;;;;;;6127736;23;20374;-82
2023/05/20 02:59:29;;;;;;;0.80;0.35;;;12.10;99.90;;;;;;6127117;23;20705;-81
2023/05/20 03:01:56;;;;;;;0.38;0.30;;;12.10;99.90;;;;;;6128293;23;20378;-82
2023/05/20 03:04:24;;;;;;;0.50;0.23;;;12.10;99.90;;;;;;6152733;23;20397;-82
2023/05/20 03:06:52;;;;;;;1.10;0.30;;;12.10;99.90;;;;;;6128264;23;20394;-81
2023/05/20 03:09:19;;;;;;;1.15;0.50;;;12.10;99.90;;;;;;6127701;23;20752;-82
2023/05/20 03:11:47;;;;;;;0.77;0.30;;;12.10;99.90;;;;;;6127507;23;20387;-81
2023/05/20 03:14:14;;;;;;;0.40;0.20;;;12.10;99.90;;;;;;6127861;23;20428;-81
2023/05/20 03:16:41;;;;;;;0.43;0.30;;;12.10;99.90;;;;;;6127075;23;20748;-81
2023/05/20 03:19:08;;;;;;;1.33;0.30;;;12.10;99.90;;;;;;6128136;23;20702;-82
2023/05/20 03:21:35;;;;;;;0.98;0.40;;;12.10;99.90;;;;;;6152298;23;20378;-81
2023/05/20 03:24:02;;;;;;;0.70;0.40;;;12.10;99.90;;;;;;6127378;23;20389;-82
2023/05/20 03:26:29;;;;;;;1.40;0.40;;;12.10;99.90;;;;;;6127171;23;20382;-82
2023/05/20 03:28:56;;;;;;;1.63;0.50;;;12.10;99.90;;;;;;6127416;23;20470;-82
2023/05/20 03:31:23;;;;;;;0.90;0.40;;;12.10;99.90;;;;;;6127925;23;20374;-82
2023/05/20 03:33:50;;;;;;;1.40;0.65;;;12.00;99.90;;;;;;6126785;23;20749;-81
2023/05/20 03:36:17;;;;;;;1.00;0.40;;;12.00;99.90;;;;;;6128116;23;20704;-82
2023/05/20 03:38:43;;;;;;;0.88;0.40;;;12.00;99.90;;;;;;6102207;23;20374;-82
2023/05/20 03:41:10;;;;;;;1.70;0.40;;;12.00;99.90;;;;;;6127448;23;20752;-82
2023/05/20 03:43:37;;;;;;;0.77;0.38;;;12.00;99.90;;;;;;6126573;23;20705;-82
2023/05/20 03:46:04;;;;;;;0.85;0.32;;;12.00;99.90;;;;;;6127904;23;20385;-81
2023/05/20 03:48:31;;;;;;;1.67;0.45;;;12.00;99.90;;;;;;6126577;23;20482;-81
2023/05/20 03:50:58;;;;;;;0.98;0.45;;;12.00;99.90;;;;;;6128143;23;20712;-81
2023/05/20 03:53:25;;;;;;;0.93;0.45;;;12.00;99.90;;;;;;6127656;23;20381;-80
2023/05/20 03:55:52;;;;;;;1.25;0.40;;;12.00;99.90;;;;;;6126804;23;20413;-82
2023/05/20 03:58:19;;;;;;;0.80;0.37;;;12.00;99.90;;;;;;6127513;23;20863;-81
2023/05/20 04:00:47;;;;;;;2.00;0.50;;;12.00;99.90;;;;;;6126770;23;20422;-82
2023/05/20 04:03:14;;;;;;;0.90;0.20;;;12.00;99.90;;;;;;6127079;23;20397;-81
2023/05/20 04:05:41;;;;;;;0.50;0.10;;;12.00;99.90;;;;;;6127010;23;20425;-81
2023/05/20 04:08:08;;;;;;;0.73;0.10;;;12.00;99.90;;;;;;6127214;23;20382;-80
2023/05/20 04:10:35;;;;;;;0.60;0.05;;;12.00;99.90;;;;;;6126126;23;20385;-82
2023/05/20 04:13:02;;;;;;;0.30;0.10;;;12.00;99.90;;;;;;6127900;23;20394;-81
2023/05/20 04:15:29;;;;;;;0.40;0.13;;;12.00;99.90;;;;;;6126030;23;20381;-82
2023/05/20 04:17:56;;;;;;;0.38;0.20;;;12.00;99.90;;;;;;6127605;23;20378;-82
2023/05/20 04:20:23;;;;;;;0.52;0.20;;;12.00;99.90;;;;;;6127315;23;20378;-81
2023/05/20 04:22:51;;;;;;;0.30;0.30;;;12.00;99.90;;;;;;6126270;23;20720;-80
2023/05/20 04:25:18;;;;;;;1.08;0.30;;;12.00;99.90;;;;;;6127252;23;20453;-82
2023/05/20 04:27:45;;;;;;;1.33;0.30;;;12.00;99.90;;;;;;6152051;23;20397;-81
2023/05/20 04:30:12;;;;;;;0.68;0.38;;;12.00;99.90;;;;;;6153116;23;20374;-82
2023/05/20 04:32:40;;;;;;;0.50;0.20;;;12.00;99.90;;;;;;6126898;23;20378;-82
2023/05/20 04:35:10;;;;;;;0.50;0.20;;;12.00;99.90;;;;;;6126854;23;20371;-81
2023/05/20 04:37:38;;;;;;;1.15;0.38;;;12.00;99.90;;;;;;6150727;23;20424;-82
2023/05/20 04:40:08;;;;;;;0.60;0.20;;;12.00;99.90;;;;;;6127359;23;20400;-82
2023/05/20 04:42:35;;;;;;;0.80;0.30;;;12.00;99.90;;;;;;6150964;23;20409;-81
2023/05/20 04:45:04;;;;;;;0.82;0.30;;;12.00;99.90;;;;;;6127031;23;20371;-82
2023/05/20 04:47:37;;;;;;;0.70;0.30;;;12.00;99.90;;;;;;6126420;23;20442;-82
2023/05/20 04:50:09;;;;;;;0.70;0.30;;;12.00;99.90;;;;;;6127210;23;20417;-82
2023/05/20 04:52:37;;;;;;;1.30;0.40;;;12.00;99.90;;;;;;6150774;23;20689;-81
2023/05/20 04:55:09;;;;;;;1.17;0.30;;;12.00;99.90;;;;;;6151666;23;20689;-80
2023/05/20 04:57:43;;;;;;;1.40;0.20;;;12.00;99.90;;;;;;6150725;23;20712;-82
2023/05/20 05:00:12;;;;;;;0.90;0.40;;;12.00;99.90;;;;;;6152888;23;20381;-81
2023/05/20 05:02:39;;;;;;;0.20;0.10;;;12.00;99.90;;;;;;6150241;23;20396;-81
2023/05/20 05:05:06;;;;;;;0.55;0.10;;;12.00;99.90;;;;;;6127484;23;20366;-82
2023/05/20 05:07:34;;;;;;;1.50;0.10;;;12.00;99.90;;;;;;6150305;23;20366;-82
2023/05/20 05:10:01;;;;;;;0.28;0.10;;;12.00;99.90;;;;;;6127126;23;20377;-82
2023/05/20 05:12:27;;;;;;;0.20;0.10;;;12.00;99.90;;;;;;6126865;23;20370;-82
2023/05/20 05:14:54;;;;;;;0.10;0.10;;;12.00;99.90;;;;;;6125893;23;20374;-82
2023/05/20 05:17:21;;;;;;;0.88;0.20;;;12.00;99.90;;;;;;6152475;23;20709;-82
2023/05/20 05:19:48;;;;;;;0.30;0.20;;;12.00;99.90;;;;;;6126186;23;20417;-81
2023/05/20 05:22:15;;;;;;;1.08;0.20;;;12.00;99.90;;;;;;6126729;23;20373;-81
2023/05/20 05:24:42;;;;;;;0.40;0.20;;;12.00;99.90;;;;;;6126646;23;20386;-81
2023/05/20 05:27:09;;;;;;;0.33;0.13;;;12.00;99.90;;;;;;6126233;23;20432;-82
2023/05/20 05:29:36;;;;;;;0.50;0.20;;;12.00;99.90;;;;;;6126144;23;20752;-82
2023/05/20 05:32:03;;;;;;;0.90;0.30;;;12.00;99.90;;;;;;6126683;23;20377;-81
2023/05/20 05:34:30;;;;;;;0.30;0.20;;;12.00;99.90;;;;;;6126840;23;20382;-81
2023/05/20 05:36:57;;;;;;;0.70;0.10;;;12.00;99.90;;;;;;6125787;23;20370;-81
2023/05/20 05:39:23;;;;;;;0.40;0.10;;;12.00;99.90;;;;;;6127065;23;20366;-80
2023/05/20 05:41:50;;;;;;;0.30;0.10;;;12.00;99.90;;;;;;6126255;23;20378;-81
2023/05/20 05:44:17;;;;;;;0.10;0.10;;;12.00;99.90;;;;;;6126694;23;20445;-80
2023/05/20 05:46:44;;;;;;;0.25;0.10;;;12.00;99.90;;;;;;6126233;23;20382;-81
2023/05/20 05:49:11;;;;;;;0.95;0.20;;;12.00;99.90;;;;;;6126201;23;20378;-81
2023/05/20 05:51:38;;;;;;;0.60;0.20;;;12.00;99.90;;;;;;6125797;23;20389;-81
2023/05/20 05:54:05;;;;;;;0.50;0.20;;;12.00;99.90;;;;;;6126807;23;20432;-81
2023/05/20 05:56:31;;;;;;;1.23;0.30;;;12.00;99.90;;;;;;6152891;23;20378;-82
2023/05/20 05:58:58;;;;;;;1.27;0.40;;;12.00;99.90;;;;;;6125588;23;20448;-81
2023/05/20 06:01:25;;;;;;;0.50;0.20;;;12.00;99.90;;;;;;6126878;23;20397;-81
2023/05/20 06:03:52;;;;;;;0.43;0.20;;;12.00;99.90;;;;;;6125679;23;20420;-82
2023/05/20 06:06:20;;;;;;;1.50;0.30;;;12.00;99.90;;;;;;6126712;23;20381;-82
2023/05/20 06:08:46;;;;;;;0.80;0.20;;;12.00;99.90;;;;;;6125639;23;20382;-81
2023/05/20 06:11:13;;;;;;;0.90;0.20;;;12.00;99.90;;;;;;6126733;23;20462;-81
2023/05/20 06:13:40;;;;;;;0.80;0.20;;;12.00;99.90;;;;;;6125664;23;20382;-81
2023/05/20 06:16:08;;;;;;;0.90;0.20;;;12.00;99.90;;;;;;6126347;23;20378;-81
2023/05/20 06:18:34;;;;;;;0.93;0.32;;;12.00;99.90;;;;;;6126830;23;20455;-80
2023/05/20 06:21:02;;;;;;;0.60;0.40;;;12.00;99.90;;;;;;6126046;23;20366;-81
2023/05/20 06:23:29;;;;;;;1.50;0.30;;;12.00;99.90;;;;;;6126624;23;20757;-82
2023/05/20 06:25:59;;;;;;;0.70;0.30;;;12.00;99.90;;;;;;6125808;23;20744;-82
2023/05/20 06:28:26;;;;;;;1.58;0.30;;;12.00;99.90;;;;;;6150767;23;20374;-81
2023/05/20 06:30:54;;;;;;;0.98;0.38;;;12.00;99.90;;;;;;6125477;23;20382;-82
2023/05/20 06:33:26;;;;;;;1.30;0.30;;;12.00;99.90;;;;;;6151095;23;20819;-81
2023/05/20 06:35:58;;;;;;;0.73;0.30;;;12.00;99.90;;;;;;6151270;23;20409;-81
2023/05/20 06:38:25;;;;;;;0.40;0.30;;;12.00;99.90;;;;;;6127834;23;20845;-82
2023/05/20 06:40:52;;;;;;;1.00;0.30;;;12.00;99.90;;;;;;6127525;23;20467;-82
2023/05/20 06:43:18;;;;;;;1.30;0.30;;;12.00;99.90;;;;;;6154296;23;20386;-81
2023/05/20 06:45:45;;;;;;;0.30;0.20;;;12.00;99.90;;;;;;6127362;23;20440;-82
2023/05/20 06:48:12;;;;;;;1.23;0.45;;;12.00;99.90;;;;;;6127945;23;20432;-81
2023/05/20 06:50:39;;;;;;;0.90;0.70;;;12.00;99.90;;;;;;6128064;23;20435;-82
2023/05/20 06:53:06;;;;;;;0.90;0.40;;;12.10;99.90;;;;;;6127404;23;20363;-81
2023/05/20 06:55:33;;;;;;;0.57;0.47;;;12.10;99.90;;;;;;6127729;23;20437;-82
2023/05/20 06:58:00;;;;;;;1.50;0.50;;;12.10;99.90;;;;;;6127671;23;20370;-82
2023/05/20 07:00:27;;;;;;;0.60;0.40;;;12.10;99.90;;;;;;6127762;23;20374;-81
2023/05/20 07:02:54;;;;;;;0.70;0.38;;;12.10;99.90;;;;;;6127255;23;20389;-82
2023/05/20 07:05:23;;;;;;;0.95;0.40;;;12.10;99.90;;;;;;6127613;23;20366;-81
2023/05/20 07:07:50;;;;;;;1.27;0.40;;;12.10;99.90;;;;;;6126829;23;20761;-82
2023/05/20 07:10:16;;;;;;;1.30;0.50;;;12.10;99.90;;;;;;6127866;23;20445;-81
2023/05/20 07:12:43;;;;;;;1.00;0.47;;;12.10;99.90;;;;;;6127527;23;20370;-81
2023/05/20 07:15:10;;;;;;;1.73;0.65;;;12.10;99.90;;;;;;6127100;23;20420;-80
2023/05/20 07:17:37;;;;;;;1.02;0.73;;;12.10;99.90;;;;;;6153780;23;20381;-82
2023/05/20 07:20:05;;;;;;;1.80;0.53;;;12.10;99.90;;;;;;6126721;23;20384;-81
2023/05/20 07:22:31;;;;;;;1.95;0.60;;;12.10;99.90;;;;;;6152074;23;20389;-81
2023/05/20 07:25:00;;;;;;;2.13;0.70;;;12.10;99.90;;;;;;6152374;23;20374;-82
2023/05/20 07:27:26;;;;;;;1.13;0.67;;;12.10;99.90;;;;;;6153425;23;20384;-81
2023/05/20 07:29:53;;;;;;;1.20;0.57;;;12.10;99.90;;;;;;6126759;23;20389;-82
2023/05/20 07:32:20;;;;;;;1.60;0.60;;;12.20;99.90;;;;;;6127865;23;20696;-81
2023/05/20 07:34:47;;;;;;;1.48;0.50;;;12.10;99.90;;;;;;6127685;23;20376;-81
2023/05/20 07:37:15;;;;;;;1.17;0.45;;;12.20;99.90;;;;;;6126420;23;20397;-83
2023/05/20 07:39:41;;;;;;;1.20;0.50;;;12.20;99.90;;;;;;6127115;23;20452;-82
2023/05/20 07:42:09;;;;;;;0.80;0.60;;;12.20;99.90;;;;;;6126473;23;20721;-80
2023/05/20 07:44:36;;;;;;;1.17;0.70;;;12.20;99.90;;;;;;6127501;23;20449;-80
2023/05/20 07:47:03;;;;;;;0.95;0.60;;;12.20;99.90;;;;;;6126968;23;20703;-82
2023/05/20 07:49:30;;;;;;;0.68;0.43;;;12.20;99.90;;;;;;6152416;23;20374;-79
2023/05/20 07:51:57;;;;;;;1.05;0.55;;;12.20;99.90;;;;;;6125995;23;20848;-82
2023/05/20 07:54:26;;;;;;;1.60;0.50;;;12.20;99.90;;;;;;6127789;23;20400;-86
2023/05/20 07:56:53;;;;;;;1.33;0.60;;;12.20;99.90;;;;;;6127156;23;20397;-81
2023/05/20 07:59:20;;;;;;;1.25;0.70;;;12.20;99.90;;;;;;6126555;23;20438;-81
2023/05/20 08:01:47;;;;;;;3.00;0.80;;;12.20;99.90;;;;;;6127280;23;20382;-80
2023/05/20 08:04:14;;;;;;;1.15;0.80;;;12.20;99.90;;;;;;6126639;23;20875;-81
2023/05/20 08:06:43;;;;;;;1.20;0.75;;;12.20;99.90;;;;;;6127352;23;20378;-81
2023/05/20 08:09:10;;;;;;;1.15;0.52;;;12.20;99.90;;;;;;6126267;23;20401;-80
2023/05/20 08:11:37;;;;;;;1.85;0.80;;;12.20;99.90;;;;;;6127385;23;20457;-80
2023/05/20 08:14:05;;;;;;;1.77;0.70;;;12.20;99.90;;;;;;6126322;23;20445;-81
2023/05/20 08:16:32;;;;;;;0.88;0.63;;;12.30;99.90;;;;;;6127570;23;20381;-81
2023/05/20 08:18:59;;;;;;;2.25;0.70;;;12.20;99.90;;;;;;6126051;23;20405;-80
2023/05/20 08:21:26;;;;;;;1.47;1.00;;;12.20;99.90;;;;;;6127472;23;20366;-81
2023/05/20 08:23:54;;;;;;;2.15;1.33;;;12.30;99.90;;;;;;6126418;23;20864;-81
2023/05/20 08:26:21;;;;;;;1.37;1.07;;;12.30;99.90;;;;;;6150692;23;20400;-82
2023/05/20 08:28:48;;;;;;;2.47;1.27;;;12.30;99.90;;;;;;6126870;23;20427;-81
2023/05/20 08:31:16;;;;;;;2.05;0.80;;;12.30;99.90;;;;;;6126547;23;20708;-81
2023/05/20 08:33:43;;;;;;;1.20;0.80;;;12.30;99.90;;;;;;6126973;23;20709;-80
2023/05/20 08:36:10;;;;;;;1.70;0.60;;;12.30;99.90;;;;;;6126089;23;20685;-82
2023/05/20 08:38:37;;;;;;;1.60;0.57;;;12.30;99.90;;;;;;6127072;23;20370;-82
2023/05/20 08:41:04;;;;;;;1.80;0.70;;;12.30;99.90;;;;;;6125653;23;20389;-81
2023/05/20 08:43:31;;;;;;;1.10;0.90;;;12.30;99.90;;;;;;6127443;23;20379;-82
2023/05/20 08:45:58;;;;;;;2.00;1.15;;;12.40;99.90;;;;;;6152731;23;20374;-82
2023/05/20 08:48:26;;;;;;;1.30;0.60;;;12.40;99.90;;;;;;6126594;23;20393;-82
2023/05/20 08:50:56;;;;;;;1.80;0.60;;;12.40;99.90;;;;;;6151355;23;20444;-82
2023/05/20 08:53:24;;;;;;;1.80;0.40;;;12.40;99.90;;;;;;6150934;23;20721;-86
2023/05/20 08:56:01;;;;;;;2.25;0.57;;;12.50;99.90;;;;;;6127426;23;20851;-82
2023/05/20 08:58:29;;;;;;;1.08;0.68;;;12.50;99.90;;;;;;6150789;23;20417;-82
2023/05/20 09:00:57;;;;;;;0.95;0.50;;;12.50;99.90;;;;;;6151204;23;20425;-81
2023/05/20 09:03:24;;;;;;;0.70;0.40;;;12.50;99.90;;;;;;6150861;23;20381;-83
2023/05/20 09:06:03;;;;;;;1.52;0.98;;;12.50;99.90;;;;;;6126703;23;20373;-82
2023/05/20 09:08:31;;;;;;;2.22;1.05;;;12.60;99.90;;;;;;6126954;23;20441;-82
2023/05/20 09:10:59;;;;;;;1.50;0.82;;;12.60;99.90;;;;;;6151426;23;20371;-83
2023/05/20 09:13:29;;;;;;;1.17;0.60;;;12.60;99.90;;;;;;6150903;23;20366;-83
2023/05/20 09:15:58;;;;;;;1.63;0.60;;;12.60;99.90;;;;;;6151022;23;20374;-83
2023/05/20 09:18:25;;;;;;;1.33;0.68;;;12.70;99.90;;;;;;6150526;23;20437;-83
2023/05/20 09:20:52;;;;;;;1.05;0.50;;;12.70;99.90;;;;;;6127004;23;20370;-83
2023/05/20 09:23:24;;;;;;;1.50;0.80;;;12.70;99.90;;;;;;6126732;23;20384;-82
2023/05/20 09:25:51;;;;;;;0.93;0.70;;;12.70;99.90;;;;;;6127580;23;20452;-83
2023/05/20 09:28:22;;;;;;;1.58;0.70;;;12.70;99.90;;;;;;6125594;23;20479;-82
2023/05/20 09:30:52;;;;;;;1.00;0.70;;;12.70;99.90;;;;;;6151925;23;20685;-82
2023/05/20 09:33:20;;;;;;;1.33;0.80;;;12.70;99.90;;;;;;6125835;23;20397;-83
2023/05/20 09:35:48;;;;;;;1.00;0.68;;;12.70;99.90;;;;;;6128409;23;20712;-83
2023/05/20 09:38:16;;;;;;;0.97;0.60;;;12.70;99.90;;;;;;6126355;23;20374;-82
2023/05/20 09:40:45;;;;;;;0.85;0.50;;;12.70;99.90;;;;;;6151480;23;20377;-83
2023/05/20 09:43:12;;;;;;;0.80;0.60;;;12.80;99.90;;;;;;6150106;23;20385;-83
2023/05/20 09:45:40;;;;;;;1.65;0.85;;;12.80;99.90;;;;;;6127046;23;20378;-82
2023/05/20 09:48:09;;;;;;;1.55;0.80;;;12.80;99.90;;;;;;6126917;23;20380;-82
2023/05/20 09:50:36;;;;;;;1.30;0.60;;;12.80;99.90;;;;;;6125824;23;20405;-83
2023/05/20 09:53:05;;;;;;;1.63;0.65;;;12.80;99.90;;;;;;6127363;23;20397;-82
2023/05/20 09:55:32;;;;;;;0.95;0.50;;;12.80;99.90;;;;;;6150335;23;20394;-84
2023/05/20 09:58:02;;;;;;;1.15;0.63;;;12.80;99.90;;;;;;6151112;23;20386;-83
2023/05/20 10:00:30;;;;;;;1.23;0.60;;;12.80;99.90;;;;;;6150556;23;20429;-82
2023/05/20 10:02:58;;;;;;;1.20;0.82;;;12.80;99.90;;;;;;6151709;23;20398;-83
2023/05/20 10:05:34;;;;;;;1.25;0.82;;;12.80;99.90;;;;;;6150306;23;20914;-83
2023/05/20 10:08:10;;;;;;;1.00;0.60;;;12.80;99.90;;;;;;6150814;23;20378;-82
2023/05/20 10:10:40;;;;;;;1.40;0.60;;;12.80;99.90;;;;;;6125859;23;20370;-82
2023/05/20 10:13:19;;;;;;;1.00;0.60;;;12.80;99.90;;;;;;6128429;23;20782;-82
2023/05/20 10:15:49;;;;;;;0.80;0.60;;;12.80;99.90;;;;;;6127630;23;20381;-82
2023/05/20 10:18:35;;;;;;;0.90;0.50;;;12.90;99.90;;;;;;6128592;23;20756;-82
2023/05/20 10:21:02;;;;;;;1.30;0.50;;;12.90;99.90;;;;;;6128108;23;20749;-82
2023/05/20 10:23:30;;;;;;;2.17;0.60;;;12.90;99.90;;;;;;6128471;23;20370;-83
2023/05/20 10:25:57;;;;;;;0.70;0.50;;;12.90;99.90;;;;;;6152903;23;20382;-82
2023/05/20 10:28:32;;;;;;;1.10;0.60;;;12.90;99.90;;;;;;6152374;23;20382;-83
2023/05/20 10:30:59;;;;;;;0.90;0.50;;;12.90;99.90;;;;;;6151856;23;20432;-82
2023/05/20 10:33:27;;;;;;;0.95;0.65;;;12.90;99.90;;;;;;6128132;23;20382;-82
2023/05/20 10:35:58;;;;;;;1.08;0.60;;;13.00;99.90;;;;;;6152894;23;20440;-82
2023/05/20 10:38:25;;;;;;;1.38;0.50;;;13.00;99.90;;;;;;6152684;23;20428;-82
2023/05/20 10:40:52;;;;;;;1.27;0.50;;;13.10;99.90;;;;;;6127319;23;20376;-82
2023/05/20 10:43:27;;;;;;;0.50;0.30;;;13.00;99.90;;;;;;6128567;23;20374;-82
2023/05/20 10:45:57;;;;;;;1.60;0.50;;;13.10;99.90;;;;;;6151916;23;21194;-82
2023/05/20 10:48:31;;;;;;;1.35;0.50;;;13.10;99.90;;;;;;6152607;23;20424;-82
2023/05/20 10:51:03;;;;;;;0.90;0.57;;;13.10;99.90;;;;;;6151833;23;20398;-81
2023/05/20 10:53:43;;;;;;;0.80;0.38;;;13.10;99.90;;;;;;6152522;23;20718;-81
2023/05/20 10:56:18;;;;;;;1.83;0.90;;;13.10;99.90;;;;;;6127047;23;20366;-81
2023/05/20 10:58:45;;;;;;;1.10;0.80;;;13.10;99.90;;;;;;6151990;23;20382;-81
2023/05/20 11:01:12;;;;;;;0.93;0.70;;;13.10;99.90;;;;;;6127518;23;20429;-82
2023/05/20 11:03:40;;;;;;;1.33;0.65;;;13.10;99.90;;;;;;6128342;23;20386;-81
2023/05/20 11:06:15;;;;;;;1.08;0.50;;;13.20;99.90;;;;;;6151189;23;20378;-81
2023/05/20 11:08:45;;;;;;;0.77;0.40;;;13.20;99.90;;;;;;6153311;23;20382;-81
2023/05/20 11:11:13;;;;;;;0.60;0.30;;;13.20;99.90;;;;;;6151177;23;20381;-82
2023/05/20 11:13:40;;;;;;;0.50;0.30;;;13.20;99.90;;;;;;6153078;23;20374;-81
2023/05/20 11:16:08;;;;;;;0.85;0.40;;;13.20;99.90;;;;;;6151186;23;20742;-81
2023/05/20 11:18:35;;;;;;;1.33;0.50;;;13.20;99.90;;;;;;6128264;23;20402;-81
2023/05/20 11:21:02;;;;;;;1.00;0.88;;;13.20;99.90;;;;;;6126834;23;20374;-82
2023/05/20 11:23:29;;;;;;;1.30;0.90;;;13.20;99.90;;;;;;6127766;23;20397;-82
2023/05/20 11:25:56;;;;;;;1.43;0.87;;;13.20;99.90;;;;;;6126871;23;20378;-82
2023/05/20 11:28:23;;;;;;;1.10;0.63;;;13.20;99.90;;;;;;6126301;23;20425;-82
2023/05/20 11:30:52;;;;;;;1.10;0.50;;;13.30;99.90;;;;;;6125937;23;20386;-82
2023/05/20 11:33:19;;;;;;;1.13;0.55;;;13.30;99.90;;;;;;6126850;23;20374;-82
2023/05/20 11:35:51;;;;;;;1.23;0.60;;;13.40;99.90;;;;;;6151588;23;20417;-82
2023/05/20 11:38:20;;;;;;;1.98;0.90;;;13.40;99.90;;;;;;6126513;23;20367;-82
2023/05/20 11:40:54;;;;;;;1.77;0.80;;;13.40;99.90;;;;;;6152601;23;20425;-82
2023/05/20 11:43:22;;;;;;;1.40;0.60;;;13.40;99.90;;;;;;6125829;23;20374;-81
2023/05/20 11:45:54;;;;;;;1.30;0.50;;;13.50;99.90;;;;;;6151796;23;20889;-81
2023/05/20 11:48:23;;;;;;;1.90;0.80;;;13.50;99.90;;;;;;6151349;23;20381;-83
2023/05/20 11:50:53;;;;;;;1.77;0.80;;;13.50;99.90;;;;;;6151489;23;20377;-82
2023/05/20 11:53:21;;;;;;;1.33;0.50;;;13.50;99.90;;;;;;6151054;23;20370;-81
2023/05/20 11:55:50;;;;;;;0.52;0.40;;;13.50;99.90;;;;;;6152024;23;20382;-82
2023/05/20 11:58:21;;;;;;;0.80;0.40;;;13.50;99.90;;;;;;6149750;23;20382;-82
2023/05/20 12:00:48;;;;;;;0.80;0.30;;;13.60;99.90;;;;;;6127553;23;20400;-81
2023/05/20 12:03:25;;;;;;;0.30;0.30;;;13.50;99.90;;;;;;6151200;23;20378;-81
2023/05/20 12:05:52;;;;;;;0.70;0.30;;;13.60;99.90;;;;;;6126866;23;20386;-82
2023/05/20 12:08:19;;;;;;;1.20;0.30;;;13.60;99.90;;;;;;6126978;23;20782;-82
2023/05/20 12:10:46;;;;;;;1.90;0.40;;;13.60;99.90;;;;;;6128080;23;20370;-82
2023/05/20 12:13:13;;;;;;;1.00;0.68;;;13.60;99.90;;;;;;6126892;23;20378;-82
2023/05/20 12:15:40;;;;;;;10.95;6.38;;;13.60;99.90;;;;;;6126480;23;20378;-82
2023/05/20 12:18:07;;;;;;;13.30;6.22;;;13.60;99.90;;;;;;6124445;23;20412;-82
2023/05/20 12:20:35;;;;;;;9.10;4.70;;;13.70;99.90;;;;;;6126113;23;20430;-82
2023/05/20 12:23:03;;;;;;;2.50;1.42;;;13.70;99.90;;;;;;6126604;23;20783;-82
2023/05/20 12:25:30;;;;;;;0.77;0.40;;;13.70;99.90;;;;;;6125120;23;20806;-82
2023/05/20 12:27:58;;;;;;;0.65;0.30;;;13.70;99.90;;;;;;6133092;23;20740;-82
2023/05/20 12:30:25;;;;;;;1.45;0.40;;;13.70;99.90;;;;;;6154162;23;20378;-82
2023/05/20 12:32:52;;;;;;;1.13;0.52;;;13.70;99.90;;;;;;6128683;23;20843;-82
2023/05/20 12:35:35;;;;;;;1.10;0.50;;;13.70;99.90;;;;;;6128071;23;20374;-82
2023/05/20 12:38:02;;;;;;;0.68;0.50;;;13.70;99.90;;;;;;6154925;23;20370;-81
2023/05/20 12:40:29;;;;;;;1.45;0.70;;;13.70;99.90;;;;;;6153103;23;20374;-83
2023/05/20 12:42:57;;;;;;;1.80;0.57;;;13.80;99.90;;;;;;6127375;23;20378;-82
2023/05/20 12:45:24;;;;;;;4.97;1.30;;;13.80;99.90;;;;;;6128454;23;20382;-82
2023/05/20 12:47:53;;;;;;;2.25;1.02;;;13.70;99.90;;;;;;6133597;23;20737;-81
2023/05/20 12:50:21;;;;;;;2.22;1.02;;;13.80;99.90;;;;;;6154240;23;20381;-82
2023/05/20 12:52:48;;;;;;;1.00;0.70;;;13.70;99.90;;;;;;6155279;23;20378;-81